createdAt,value
2023-03-07T00:07:37.195Z,1.43
2023-03-07T00:22:40.211Z,1.62
2023-03-07T00:37:45.241Z,1.93
2023-03-07T00:52:50.249Z,2.12
2023-03-07T01:07:55.231Z,2.18
2023-03-07T01:23:00.241Z,2.18
2023-03-07T01:38:05.277Z,2.18
2023-03-07T01:53:10.283Z,2.25
2023-03-07T02:08:15.275Z,2.31
2023-03-07T02:23:20.266Z,2.37
2023-03-07T02:38:25.285Z,2.43
2023-03-07T02:53:30.288Z,2.37
2023-03-07T03:08:35.328Z,2.37
2023-03-07T03:23:40.321Z,2.37
2023-03-07T03:38:45.318Z,2.31
2023-03-07T03:53:50.329Z,2.37
2023-03-07T04:08:55.309Z,2.43
2023-03-07T04:24:00.316Z,2.37
2023-03-07T04:39:05.321Z,2.37
2023-03-07T04:54:10.328Z,2.37
2023-03-07T05:09:15.419Z,2.43
2023-03-07T05:24:20.345Z,2.37
2023-03-07T05:39:25.385Z,2.37
2023-03-07T05:54:30.398Z,2.37
2023-03-07T06:09:35.372Z,2.31
2023-03-07T06:24:40.409Z,2.31
2023-03-07T06:39:45.409Z,2.37
2023-03-07T06:54:50.363Z,2.43
2023-03-07T07:25:00.459Z,2.5
2023-03-07T07:40:05.409Z,2.5
2023-03-07T07:55:10.410Z,2.56
2023-03-07T08:10:15.477Z,2.62
2023-03-07T08:25:20.472Z,2.62
2023-03-07T08:40:25.478Z,2.68
2023-03-07T08:55:30.468Z,2.62
2023-03-07T09:10:35.444Z,2.56
2023-03-07T09:25:40.491Z,2.56
2023-03-07T09:40:45.514Z,2.56
2023-03-07T09:55:50.504Z,1.68
2023-03-07T10:10:55.500Z,1.75
2023-03-07T10:26:00.486Z,1.68
2023-03-07T10:41:06.628Z,1.81
2023-03-07T10:56:10.511Z,1.81
2023-03-07T11:11:15.519Z,1.68
2023-03-07T11:26:20.517Z,1.62
2023-03-07T11:41:25.508Z,1.56
2023-03-07T11:56:30.671Z,1.56
2023-03-07T12:26:40.591Z,1.75
2023-03-07T12:41:45.546Z,1.68
2023-03-07T12:56:50.587Z,1.62
2023-03-07T13:11:55.549Z,1.43
2023-03-07T13:27:00.574Z,1.31
2023-03-07T13:42:05.601Z,1.5
2023-03-07T13:57:10.619Z,1.56
2023-03-07T14:12:15.594Z,1.68
2023-03-07T14:27:20.646Z,1.62
2023-03-07T14:42:25.646Z,1.5
2023-03-07T14:57:30.646Z,1.5
2023-03-07T15:12:35.653Z,1.56
2023-03-07T15:27:40.649Z,1.43
2023-03-07T15:42:45.689Z,1.37
2023-03-07T15:57:50.664Z,1.31
2023-03-07T16:12:55.710Z,1.12
2023-03-07T16:28:00.710Z,1.18
2023-03-07T16:43:03.696Z,1.06
2023-03-07T16:58:08.717Z,0.93
2023-03-07T17:13:13.691Z,1
2023-03-07T17:28:20.435Z,0.87
2023-03-07T17:43:23.728Z,0.62
2023-03-07T17:58:28.762Z,0.43
2023-03-07T18:13:33.817Z,0.31
2023-03-07T18:28:42.781Z,0.18
2023-03-07T18:43:43.766Z,0.12
2023-03-07T18:58:48.785Z,0.06
2023-03-07T19:13:53.767Z,0
2023-03-07T19:28:58.823Z,0
2023-03-07T19:44:03.868Z,-0.07
2023-03-07T19:59:08.822Z,-0.13
2023-03-07T20:29:18.875Z,0
2023-03-07T20:44:23.845Z,0
2023-03-07T20:59:28.855Z,0
2023-03-07T21:14:33.909Z,0
2023-03-07T21:29:38.879Z,0.06
2023-03-07T21:44:43.902Z,0
2023-03-07T21:59:48.975Z,0
2023-03-07T22:14:53.900Z,0.06
2023-03-07T22:29:58.925Z,0.06
2023-03-07T22:45:03.952Z,0.12
2023-03-07T23:00:08.967Z,0.12
2023-03-07T23:15:13.958Z,0.12
2023-03-07T23:30:18.983Z,0.12
2023-03-07T23:45:23.993Z,0.12
